sensor_id;sensor_type;location;lat;lon;timestamp;pressure;altitude;pressure_sealevel;temperature;humidity
37852;BME280;23691;52.486;4.650;2024-01-30T00:02:09;102494.50;;;9.02;78.43
37852;BME280;23691;52.486;4.650;2024-01-30T00:04:34;102505.19;;;9.02;78.56
37852;BME280;23691;52.486;4.650;2024-01-30T00:07:00;102500.69;;;9.02;78.60
37852;BME280;23691;52.486;4.650;2024-01-30T00:09:25;102497.06;;;9.03;78.50
37852;BME280;23691;52.486;4.650;2024-01-30T00:11:50;102508.59;;;9.04;78.46
37852;BME280;23691;52.486;4.650;2024-01-30T00:14:16;102504.97;;;9.05;78.64
37852;BME280;23691;52.486;4.650;2024-01-30T00:16:41;102504.84;;;9.07;78.44
37852;BME280;23691;52.486;4.650;2024-01-30T00:19:07;102496.59;;;9.10;78.49
37852;BME280;23691;52.486;4.650;2024-01-30T00:21:33;102504.75;;;9.08;78.51
37852;BME280;23691;52.486;4.650;2024-01-30T00:23:59;102509.22;;;9.08;78.35
37852;BME280;23691;52.486;4.650;2024-01-30T00:26:24;102511.28;;;9.04;78.66
37852;BME280;23691;52.486;4.650;2024-01-30T00:28:49;102507.75;;;9.03;78.85
37852;BME280;23691;52.486;4.650;2024-01-30T00:31:15;102501.53;;;9.03;78.72
37852;BME280;23691;52.486;4.650;2024-01-30T00:33:41;102501.44;;;9.05;78.86
37852;BME280;23691;52.486;4.650;2024-01-30T00:36:08;102498.78;;;9.05;78.81
37852;BME280;23691;52.486;4.650;2024-01-30T00:38:36;102500.59;;;9.04;78.93
37852;BME280;23691;52.486;4.650;2024-01-30T00:41:01;102493.31;;;9.06;78.81
37852;BME280;23691;52.486;4.650;2024-01-30T00:43:29;102492.91;;;8.99;79.08
37852;BME280;23691;52.486;4.650;2024-01-30T00:45:56;102492.69;;;9.02;79.06
37852;BME280;23691;52.486;4.650;2024-01-30T00:48:21;102496.19;;;9.03;79.14
37852;BME280;23691;52.486;4.650;2024-01-30T00:50:47;102502.28;;;9.05;79.17
37852;BME280;23691;52.486;4.650;2024-01-30T00:53:12;102505.69;;;9.07;79.17
37852;BME280;23691;52.486;4.650;2024-01-30T00:55:38;102499.41;;;9.08;79.27
37852;BME280;23691;52.486;4.650;2024-01-30T00:58:04;102509.97;;;9.10;79.11
37852;BME280;23691;52.486;4.650;2024-01-30T01:00:29;102510.69;;;9.12;79.31
37852;BME280;23691;52.486;4.650;2024-01-30T01:02:56;102510.59;;;9.13;79.27
37852;BME280;23691;52.486;4.650;2024-01-30T01:05:21;102505.59;;;9.09;79.33
37852;BME280;23691;52.486;4.650;2024-01-30T01:07:47;102507.28;;;9.10;79.52
37852;BME280;23691;52.486;4.650;2024-01-30T01:10:16;102502.19;;;9.07;79.58
37852;BME280;23691;52.486;4.650;2024-01-30T01:12:42;102495.03;;;9.07;79.64
37852;BME280;23691;52.486;4.650;2024-01-30T01:15:10;102496.09;;;9.05;79.76
37852;BME280;23691;52.486;4.650;2024-01-30T01:17:36;102488.94;;;9.05;79.68
37852;BME280;23691;52.486;4.650;2024-01-30T01:20:03;102492.13;;;9.10;79.79
37852;BME280;23691;52.486;4.650;2024-01-30T01:22:29;102486.91;;;9.09;79.95
37852;BME280;23691;52.486;4.650;2024-01-30T01:24:54;102486.66;;;9.12;80.16
37852;BME280;23691;52.486;4.650;2024-01-30T01:27:20;102488.50;;;9.11;80.17
37852;BME280;23691;52.486;4.650;2024-01-30T01:29:46;102480.34;;;9.13;80.26
37852;BME280;23691;52.486;4.650;2024-01-30T01:32:11;102497.00;;;9.16;80.10
37852;BME280;23691;52.486;4.650;2024-01-30T01:34:37;102478.31;;;9.16;80.19
37852;BME280;23691;52.486;4.650;2024-01-30T01:37:02;102489.50;;;9.21;80.06
37852;BME280;23691;52.486;4.650;2024-01-30T01:39:28;102487.91;;;9.19;80.11
37852;BME280;23691;52.486;4.650;2024-01-30T01:41:53;102476.38;;;9.18;80.09
37852;BME280;23691;52.486;4.650;2024-01-30T01:44:18;102475.50;;;9.18;80.02
37852;BME280;23691;52.486;4.650;2024-01-30T01:46:44;102469.31;;;9.17;80.20
37852;BME280;23691;52.486;4.650;2024-01-30T01:49:10;102473.94;;;9.15;80.11
37852;BME280;23691;52.486;4.650;2024-01-30T01:51:36;102482.91;;;9.14;80.21
37852;BME280;23691;52.486;4.650;2024-01-30T01:54:03;102490.69;;;9.17;80.19
37852;BME280;23691;52.486;4.650;2024-01-30T01:56:30;102482.69;;;9.17;80.16
37852;BME280;23691;52.486;4.650;2024-01-30T01:59:02;102470.16;;;9.18;80.15
37852;BME280;23691;52.486;4.650;2024-01-30T02:01:31;102463.97;;;9.17;80.04
37852;BME280;23691;52.486;4.650;2024-01-30T02:04:00;102454.16;;;9.18;79.94
37852;BME280;23691;52.486;4.650;2024-01-30T02:06:26;102457.69;;;9.18;79.85
37852;BME280;23691;52.486;4.650;2024-01-30T02:08:53;102448.81;;;9.18;79.84
37852;BME280;23691;52.486;4.650;2024-01-30T02:11:19;102446.38;;;9.15;79.97
37852;BME280;23691;52.486;4.650;2024-01-30T02:13:48;102437.41;;;9.16;79.78
37852;BME280;23691;52.486;4.650;2024-01-30T02:16:16;102461.31;;;9.17;79.87
37852;BME280;23691;52.486;4.650;2024-01-30T02:18:44;102455.13;;;9.17;79.40
37852;BME280;23691;52.486;4.650;2024-01-30T02:21:13;102440.09;;;9.16;79.60
37852;BME280;23691;52.486;4.650;2024-01-30T02:23:39;102436.69;;;9.14;79.81
37852;BME280;23691;52.486;4.650;2024-01-30T02:26:07;102439.34;;;9.14;79.68
37852;BME280;23691;52.486;4.650;2024-01-30T02:28:32;102453.66;;;9.13;79.90
37852;BME280;23691;52.486;4.650;2024-01-30T02:30:58;102456.31;;;9.13;79.56
37852;BME280;23691;52.486;4.650;2024-01-30T02:33:23;102447.59;;;9.11;79.58
37852;BME280;23691;52.486;4.650;2024-01-30T02:35:48;102454.72;;;9.10;79.59
37852;BME280;23691;52.486;4.650;2024-01-30T02:38:15;102459.13;;;9.11;79.53
37852;BME280;23691;52.486;4.650;2024-01-30T02:40:41;102445.03;;;9.09;79.57
37852;BME280;23691;52.486;4.650;2024-01-30T02:43:06;102452.19;;;9.09;79.69
37852;BME280;23691;52.486;4.650;2024-01-30T02:45:31;102452.28;;;9.07;79.49
37852;BME280;23691;52.486;4.650;2024-01-30T02:47:57;102453.03;;;9.09;79.50
37852;BME280;23691;52.486;4.650;2024-01-30T02:50:22;102442.34;;;9.09;79.62
37852;BME280;23691;52.486;4.650;2024-01-30T02:52:48;102443.22;;;9.10;79.71
37852;BME280;23691;52.486;4.650;2024-01-30T02:55:13;102434.44;;;9.08;79.81
37852;BME280;23691;52.486;4.650;2024-01-30T02:57:38;102426.34;;;9.09;79.72
37852;BME280;23691;52.486;4.650;2024-01-30T03:00:05;102424.75;;;9.07;79.74
37852;BME280;23691;52.486;4.650;2024-01-30T03:02:32;102410.66;;;9.05;79.83
37852;BME280;23691;52.486;4.650;2024-01-30T03:04:58;102408.63;;;9.08;79.89
37852;BME280;23691;52.486;4.650;2024-01-30T03:07:24;102413.97;;;9.08;79.87
37852;BME280;23691;52.486;4.650;2024-01-30T03:09:49;102411.31;;;9.08;79.96
37852;BME280;23691;52.486;4.650;2024-01-30T03:12:14;102407.75;;;9.08;80.01
37852;BME280;23691;52.486;4.650;2024-01-30T03:14:42;102402.41;;;9.08;80.03
37852;BME280;23691;52.486;4.650;2024-01-30T03:17:07;102408.72;;;9.07;80.08
37852;BME280;23691;52.486;4.650;2024-01-30T03:19:33;102409.56;;;9.07;80.13
37852;BME280;23691;52.486;4.650;2024-01-30T03:21:58;102407.00;;;9.06;80.23
37852;BME280;23691;52.486;4.650;2024-01-30T03:24:24;102420.16;;;9.09;80.18
37852;BME280;23691;52.486;4.650;2024-01-30T03:26:49;102411.31;;;9.08;80.16
37852;BME280;23691;52.486;4.650;2024-01-30T03:29:15;102409.47;;;9.09;80.28
37852;BME280;23691;52.486;4.650;2024-01-30T03:31:40;102413.09;;;9.08;80.33
37852;BME280;23691;52.486;4.650;2024-01-30T03:34:06;102419.31;;;9.08;80.28
37852;BME280;23691;52.486;4.650;2024-01-30T03:36:31;102413.84;;;9.10;80.18
37852;BME280;23691;52.486;4.650;2024-01-30T03:38:59;102415.75;;;9.08;80.31
37852;BME280;23691;52.486;4.650;2024-01-30T03:41:25;102412.88;;;9.11;80.17
37852;BME280;23691;52.486;4.650;2024-01-30T03:43:50;102400.13;;;9.14;80.10
37852;BME280;23691;52.486;4.650;2024-01-30T03:46:15;102387.63;;;9.15;80.06
37852;BME280;23691;52.486;4.650;2024-01-30T03:48:41;102393.81;;;9.15;80.06
37852;BME280;23691;52.486;4.650;2024-01-30T03:51:06;102392.97;;;9.15;80.35
37852;BME280;23691;52.486;4.650;2024-01-30T03:53:32;102391.28;;;9.14;80.11
37852;BME280;23691;52.486;4.650;2024-01-30T03:55:57;102390.53;;;9.12;80.17
37852;BME280;23691;52.486;4.650;2024-01-30T03:58:22;102383.38;;;9.12;80.02
37852;BME280;23691;52.486;4.650;2024-01-30T04:00:48;102381.69;;;9.11;80.25
37852;BME280;23691;52.486;4.650;2024-01-30T04:03:16;102383.38;;;9.12;80.06
37852;BME280;23691;52.486;4.650;2024-01-30T04:05:42;102380.72;;;9.12;80.26
37852;BME280;23691;52.486;4.650;2024-01-30T04:08:08;102371.84;;;9.12;80.23
37852;BME280;23691;52.486;4.650;2024-01-30T04:10:34;102383.38;;;9.12;80.10
37852;BME280;23691;52.486;4.650;2024-01-30T04:13:02;102380.84;;;9.11;80.22
37852;BME280;23691;52.486;4.650;2024-01-30T04:15:27;102387.03;;;9.11;79.95
37852;BME280;23691;52.486;4.650;2024-01-30T04:17:57;102381.56;;;9.13;80.32
37852;BME280;23691;52.486;4.650;2024-01-30T04:20:22;102379.13;;;9.10;80.41
37852;BME280;23691;52.486;4.650;2024-01-30T04:22:48;102380.84;;;9.11;80.24
37852;BME280;23691;52.486;4.650;2024-01-30T04:25:13;102384.34;;;9.11;80.31
37852;BME280;23691;52.486;4.650;2024-01-30T04:27:40;102377.19;;;9.12;80.47
37852;BME280;23691;52.486;4.650;2024-01-30T04:30:06;102379.75;;;9.13;80.31
37852;BME280;23691;52.486;4.650;2024-01-30T04:32:32;102377.94;;;9.14;80.42
37852;BME280;23691;52.486;4.650;2024-01-30T04:34:59;102372.59;;;9.14;80.45
37852;BME280;23691;52.486;4.650;2024-01-30T04:37:24;102374.41;;;9.13;81.07
37852;BME280;23691;52.486;4.650;2024-01-30T04:39:51;102371.59;;;9.15;80.81
37852;BME280;23691;52.486;4.650;2024-01-30T04:42:19;102371.97;;;9.10;80.67
37852;BME280;23691;52.486;4.650;2024-01-30T04:44:44;102372.84;;;9.11;81.02
37852;BME280;23691;52.486;4.650;2024-01-30T04:47:10;102359.47;;;9.11;80.91
37852;BME280;23691;52.486;4.650;2024-01-30T04:49:38;102359.34;;;9.12;81.14
37852;BME280;23691;52.486;4.650;2024-01-30T04:52:08;102350.38;;;9.13;81.05
37852;BME280;23691;52.486;4.650;2024-01-30T04:54:37;102349.50;;;9.13;81.38
37852;BME280;23691;52.486;4.650;2024-01-30T04:57:03;102346.84;;;9.13;81.28
37852;BME280;23691;52.486;4.650;2024-01-30T04:59:28;102349.41;;;9.14;81.32
37852;BME280;23691;52.486;4.650;2024-01-30T05:01:56;102360.19;;;9.13;81.54
37852;BME280;23691;52.486;4.650;2024-01-30T05:04:22;102358.41;;;9.13;81.40
37852;BME280;23691;52.486;4.650;2024-01-30T05:06:48;102356.44;;;9.15;81.81
37852;BME280;23691;52.486;4.650;2024-01-30T05:09:17;102363.34;;;9.18;81.37
37852;BME280;23691;52.486;4.650;2024-01-30T05:11:42;102359.84;;;9.17;81.74
37852;BME280;23691;52.486;4.650;2024-01-30T05:14:08;102357.06;;;9.19;81.66
37852;BME280;23691;52.486;4.650;2024-01-30T05:16:40;102355.13;;;9.21;81.69
37852;BME280;23691;52.486;4.650;2024-01-30T05:19:05;102346.25;;;9.20;81.65
37852;BME280;23691;52.486;4.650;2024-01-30T05:21:31;102341.63;;;9.22;81.63
37852;BME280;23691;52.486;4.650;2024-01-30T05:23:56;102338.13;;;9.22;82.13
37852;BME280;23691;52.486;4.650;2024-01-30T05:26:21;102341.53;;;9.24;81.92
37852;BME280;23691;52.486;4.650;2024-01-30T05:28:48;102348.81;;;9.22;82.10
37852;BME280;23691;52.486;4.650;2024-01-30T05:31:17;102346.13;;;9.22;82.20
37852;BME280;23691;52.486;4.650;2024-01-30T05:33:42;102342.38;;;9.24;82.17
37852;BME280;23691;52.486;4.650;2024-01-30T05:36:07;102336.94;;;9.26;82.14
37852;BME280;23691;52.486;4.650;2024-01-30T05:38:33;102340.53;;;9.25;82.41
37852;BME280;23691;52.486;4.650;2024-01-30T05:41:04;102342.03;;;9.29;82.39
37852;BME280;23691;52.486;4.650;2024-01-30T05:43:29;102348.22;;;9.30;82.68
37852;BME280;23691;52.486;4.650;2024-01-30T05:45:54;102340.09;;;9.31;82.64
37852;BME280;23691;52.486;4.650;2024-01-30T05:48:26;102347.84;;;9.34;82.33
37852;BME280;23691;52.486;4.650;2024-01-30T05:51:02;102340.69;;;9.35;82.27
37852;BME280;23691;52.486;4.650;2024-01-30T05:53:28;102339.59;;;9.37;82.66
37852;BME280;23691;52.486;4.650;2024-01-30T05:55:53;102342.16;;;9.39;82.44
37852;BME280;23691;52.486;4.650;2024-01-30T05:58:22;102343.72;;;9.41;82.61
37852;BME280;23691;52.486;4.650;2024-01-30T06:00:47;102339.38;;;9.40;82.70
37852;BME280;23691;52.486;4.650;2024-01-30T06:03:12;102334.97;;;9.39;82.78
37852;BME280;23691;52.486;4.650;2024-01-30T06:05:38;102335.72;;;9.41;83.03
37852;BME280;23691;52.486;4.650;2024-01-30T06:08:03;102329.28;;;9.44;82.77
37852;BME280;23691;52.486;4.650;2024-01-30T06:10:29;102327.47;;;9.44;82.71
37852;BME280;23691;52.486;4.650;2024-01-30T06:12:54;102324.56;;;9.48;82.99
37852;BME280;23691;52.486;4.650;2024-01-30T06:15:20;102335.25;;;9.48;82.91
37852;BME280;23691;52.486;4.650;2024-01-30T06:17:45;102339.72;;;9.47;82.94
37852;BME280;23691;52.486;4.650;2024-01-30T06:20:11;102337.94;;;9.48;82.94
37852;BME280;23691;52.486;4.650;2024-01-30T06:22:36;102347.63;;;9.49;83.02
37852;BME280;23691;52.486;4.650;2024-01-30T06:25:02;102341.44;;;9.48;83.06
37852;BME280;23691;52.486;4.650;2024-01-30T06:27:27;102329.91;;;9.48;83.02
37852;BME280;23691;52.486;4.650;2024-01-30T06:29:56;102343.03;;;9.51;82.94
37852;BME280;23691;52.486;4.650;2024-01-30T06:32:21;102336.84;;;9.50;83.03
37852;BME280;23691;52.486;4.650;2024-01-30T06:34:49;102350.06;;;9.52;83.07
37852;BME280;23691;52.486;4.650;2024-01-30T06:37:17;102341.09;;;9.53;83.30
37852;BME280;23691;52.486;4.650;2024-01-30T06:39:42;102340.94;;;9.54;83.06
37852;BME280;23691;52.486;4.650;2024-01-30T06:42:08;102346.19;;;9.56;83.25
37852;BME280;23691;52.486;4.650;2024-01-30T06:44:33;102342.41;;;9.58;83.33
37852;BME280;23691;52.486;4.650;2024-01-30T06:46:58;102345.94;;;9.59;83.27
37852;BME280;23691;52.486;4.650;2024-01-30T06:49:24;102354.78;;;9.59;83.39
37852;BME280;23691;52.486;4.650;2024-01-30T06:51:49;102353.84;;;9.60;83.52
37852;BME280;23691;52.486;4.650;2024-01-30T06:54:14;102359.19;;;9.60;83.52
37852;BME280;23691;52.486;4.650;2024-01-30T06:56:40;102359.66;;;9.65;83.53
37852;BME280;23691;52.486;4.650;2024-01-30T06:59:06;102363.19;;;9.66;83.62
37852;BME280;23691;52.486;4.650;2024-01-30T07:01:31;102367.69;;;9.65;83.84
37852;BME280;23691;52.486;4.650;2024-01-30T07:03:57;102369.00;;;9.71;83.65
37852;BME280;23691;52.486;4.650;2024-01-30T07:06:23;102371.56;;;9.73;83.63
37852;BME280;23691;52.486;4.650;2024-01-30T07:08:52;102363.56;;;9.73;83.80
37852;BME280;23691;52.486;4.650;2024-01-30T07:11:26;102372.41;;;9.73;83.97
37852;BME280;23691;52.486;4.650;2024-01-30T07:13:54;102375.56;;;9.78;83.77
37852;BME280;23691;52.486;4.650;2024-01-30T07:16:20;102384.31;;;9.80;83.33
37852;BME280;23691;52.486;4.650;2024-01-30T07:18:45;102378.84;;;9.82;83.73
37852;BME280;23691;52.486;4.650;2024-01-30T07:21:12;102382.25;;;9.84;83.79
37852;BME280;23691;52.486;4.650;2024-01-30T07:23:37;102382.13;;;9.85;83.75
37852;BME280;23691;52.486;4.650;2024-01-30T07:26:07;102386.50;;;9.86;83.98
37852;BME280;23691;52.486;4.650;2024-01-30T07:28:33;102385.88;;;9.94;83.73
37852;BME280;23691;52.486;4.650;2024-01-30T07:31:00;102382.50;;;9.92;83.80
37852;BME280;23691;52.486;4.650;2024-01-30T07:33:25;102389.66;;;9.92;84.09
37852;BME280;23691;52.486;4.650;2024-01-30T07:35:52;102380.91;;;10.01;83.93
37852;BME280;23691;52.486;4.650;2024-01-30T07:38:18;102395.00;;;10.03;84.05
37852;BME280;23691;52.486;4.650;2024-01-30T07:40:43;102393.66;;;10.08;84.13
37852;BME280;23691;52.486;4.650;2024-01-30T07:43:08;102398.50;;;10.15;84.26
37852;BME280;23691;52.486;4.650;2024-01-30T07:45:34;102405.28;;;10.19;84.17
37852;BME280;23691;52.486;4.650;2024-01-30T07:48:00;102402.75;;;10.28;84.45
37852;BME280;23691;52.486;4.650;2024-01-30T07:50:26;102403.75;;;10.39;84.24
37852;BME280;23691;52.486;4.650;2024-01-30T07:52:51;102404.31;;;10.42;84.40
37852;BME280;23691;52.486;4.650;2024-01-30T07:55:23;102405.53;;;10.49;84.62
37852;BME280;23691;52.486;4.650;2024-01-30T07:57:56;102389.41;;;10.61;84.46
37852;BME280;23691;52.486;4.650;2024-01-30T08:00:22;102378.94;;;10.69;84.45
37852;BME280;23691;52.486;4.650;2024-01-30T08:02:47;102390.22;;;10.72;84.24
37852;BME280;23691;52.486;4.650;2024-01-30T08:05:13;102405.19;;;10.75;84.69
37852;BME280;23691;52.486;4.650;2024-01-30T08:07:41;102410.41;;;10.77;84.59
37852;BME280;23691;52.486;4.650;2024-01-30T08:10:07;102409.56;;;10.76;84.87
37852;BME280;23691;52.486;4.650;2024-01-30T08:12:32;102405.78;;;10.79;84.96
37852;BME280;23691;52.486;4.650;2024-01-30T08:14:58;102413.69;;;10.80;84.90
37852;BME280;23691;52.486;4.650;2024-01-30T08:17:23;102415.25;;;10.83;85.08
37852;BME280;23691;52.486;4.650;2024-01-30T08:19:48;102426.69;;;10.85;84.57
37852;BME280;23691;52.486;4.650;2024-01-30T08:22:14;102422.91;;;10.87;84.70
37852;BME280;23691;52.486;4.650;2024-01-30T08:24:40;102433.63;;;10.87;84.56
37852;BME280;23691;52.486;4.650;2024-01-30T08:27:06;102427.03;;;10.91;84.48
37852;BME280;23691;52.486;4.650;2024-01-30T08:29:35;102436.06;;;10.90;84.49
37852;BME280;23691;52.486;4.650;2024-01-30T08:32:00;102428.88;;;10.91;84.19
37852;BME280;23691;52.486;4.650;2024-01-30T08:34:25;102441.16;;;10.93;84.03
37852;BME280;23691;52.486;4.650;2024-01-30T08:36:51;102444.56;;;10.95;83.83
37852;BME280;23691;52.486;4.650;2024-01-30T08:39:16;102436.38;;;10.97;83.70
37852;BME280;23691;52.486;4.650;2024-01-30T08:41:41;102434.53;;;10.98;83.36
37852;BME280;23691;52.486;4.650;2024-01-30T08:44:07;102448.94;;;10.96;83.10
37852;BME280;23691;52.486;4.650;2024-01-30T08:46:32;102437.47;;;10.94;82.86
37852;BME280;23691;52.486;4.650;2024-01-30T08:48:58;102439.31;;;10.94;82.67
37852;BME280;23691;52.486;4.650;2024-01-30T08:51:23;102457.34;;;10.92;82.85
37852;BME280;23691;52.486;4.650;2024-01-30T08:53:48;102454.81;;;10.90;82.65
37852;BME280;23691;52.486;4.650;2024-01-30T08:56:14;102453.09;;;10.89;82.65
37852;BME280;23691;52.486;4.650;2024-01-30T08:58:41;102446.03;;;10.88;82.52
37852;BME280;23691;52.486;4.650;2024-01-30T09:01:06;102453.81;;;10.91;82.26
37852;BME280;23691;52.486;4.650;2024-01-30T09:03:32;102444.69;;;10.94;82.25
37852;BME280;23691;52.486;4.650;2024-01-30T09:05:57;102446.13;;;10.98;81.70
37852;BME280;23691;52.486;4.650;2024-01-30T09:08:22;102455.47;;;11.04;81.56
37852;BME280;23691;52.486;4.650;2024-01-30T09:10:48;102456.31;;;11.04;81.16
37852;BME280;23691;52.486;4.650;2024-01-30T09:13:15;102463.72;;;11.12;80.83
37852;BME280;23691;52.486;4.650;2024-01-30T09:15:41;102461.19;;;11.10;80.69
37852;BME280;23691;52.486;4.650;2024-01-30T09:18:06;102466.25;;;11.13;80.32
37852;BME280;23691;52.486;4.650;2024-01-30T09:20:32;102451.19;;;11.12;80.22
37852;BME280;23691;52.486;4.650;2024-01-30T09:22:57;102464.69;;;11.11;80.03
37852;BME280;23691;52.486;4.650;2024-01-30T09:25:22;102476.63;;;11.07;80.00
37852;BME280;23691;52.486;4.650;2024-01-30T09:27:48;102474.09;;;11.05;79.51
37852;BME280;23691;52.486;4.650;2024-01-30T09:30:14;102475.78;;;11.06;79.11
37852;BME280;23691;52.486;4.650;2024-01-30T09:32:40;102484.81;;;11.05;79.55
37852;BME280;23691;52.486;4.650;2024-01-30T09:35:05;102479.47;;;11.05;79.02
37852;BME280;23691;52.486;4.650;2024-01-30T09:37:31;102477.09;;;11.12;78.84
37852;BME280;23691;52.486;4.650;2024-01-30T09:39:56;102491.59;;;11.09;78.68
37852;BME280;23691;52.486;4.650;2024-01-30T09:42:34;102495.38;;;11.07;78.74
37852;BME280;23691;52.486;4.650;2024-01-30T09:45:03;102501.00;;;11.04;78.64
37852;BME280;23691;52.486;4.650;2024-01-30T09:47:45;102492.63;;;10.97;78.71
37852;BME280;23691;52.486;4.650;2024-01-30T09:50:12;102490.94;;;10.96;78.85
37852;BME280;23691;52.486;4.650;2024-01-30T09:52:39;102499.69;;;10.98;78.71
37852;BME280;23691;52.486;4.650;2024-01-30T09:55:05;102491.28;;;11.03;78.70
37852;BME280;23691;52.486;4.650;2024-01-30T09:57:31;102499.41;;;11.12;78.70
37852;BME280;23691;52.486;4.650;2024-01-30T09:59:57;102489.28;;;11.16;78.96
37852;BME280;23691;52.486;4.650;2024-01-30T10:02:23;102480.38;;;11.15;78.63
37852;BME280;23691;52.486;4.650;2024-01-30T10:04:49;102497.78;;;11.21;78.89
37852;BME280;23691;52.486;4.650;2024-01-30T10:07:15;102490.00;;;11.18;79.10
37852;BME280;23691;52.486;4.650;2024-01-30T10:09:40;102507.19;;;11.15;79.12
37852;BME280;23691;52.486;4.650;2024-01-30T10:12:06;102506.44;;;11.13;78.99
37852;BME280;23691;52.486;4.650;2024-01-30T10:14:32;102505.34;;;11.16;79.11
37852;BME280;23691;52.486;4.650;2024-01-30T10:16:58;102499.97;;;11.16;78.96
37852;BME280;23691;52.486;4.650;2024-01-30T10:19:24;102506.34;;;11.15;78.91
37852;BME280;23691;52.486;4.650;2024-01-30T10:21:49;102514.88;;;11.09;79.11
37852;BME280;23691;52.486;4.650;2024-01-30T10:24:14;102507.94;;;11.06;79.26
37852;BME280;23691;52.486;4.650;2024-01-30T10:26:40;102504.41;;;11.06;79.16
37852;BME280;23691;52.486;4.650;2024-01-30T10:29:05;102511.59;;;11.05;79.27
37852;BME280;23691;52.486;4.650;2024-01-30T10:31:31;102507.94;;;11.06;79.16
37852;BME280;23691;52.486;4.650;2024-01-30T10:33:56;102506.25;;;11.05;79.37
37852;BME280;23691;52.486;4.650;2024-01-30T10:36:28;102520.22;;;11.09;78.95
37852;BME280;23691;52.486;4.650;2024-01-30T10:38:55;102505.97;;;11.08;78.94
37852;BME280;23691;52.486;4.650;2024-01-30T10:41:26;102517.28;;;11.12;78.66
37852;BME280;23691;52.486;4.650;2024-01-30T10:44:10;102522.41;;;11.15;78.95
37852;BME280;23691;52.486;4.650;2024-01-30T10:46:42;102525.56;;;11.20;78.82
37852;BME280;23691;52.486;4.650;2024-01-30T10:49:11;102523.00;;;11.18;78.95
37852;BME280;23691;52.486;4.650;2024-01-30T10:51:38;102521.63;;;11.24;78.73
37852;BME280;23691;52.486;4.650;2024-01-30T10:54:05;102528.31;;;11.30;78.53
37852;BME280;23691;52.486;4.650;2024-01-30T10:56:33;102524.66;;;11.31;78.56
37852;BME280;23691;52.486;4.650;2024-01-30T10:59:00;102531.13;;;11.28;78.69
37852;BME280;23691;52.486;4.650;2024-01-30T11:01:26;102530.66;;;11.23;78.94
37852;BME280;23691;52.486;4.650;2024-01-30T11:03:53;102531.38;;;11.25;78.60
37852;BME280;23691;52.486;4.650;2024-01-30T11:06:22;102524.69;;;11.20;78.63
37852;BME280;23691;52.486;4.650;2024-01-30T11:09:00;102535.06;;;11.13;78.75
37852;BME280;23691;52.486;4.650;2024-01-30T11:11:28;102529.38;;;11.06;78.73
37852;BME280;23691;52.486;4.650;2024-01-30T11:13:53;102538.59;;;11.13;78.69
37852;BME280;23691;52.486;4.650;2024-01-30T11:16:19;102530.03;;;11.20;78.67
37852;BME280;23691;52.486;4.650;2024-01-30T11:18:50;102518.44;;;11.30;78.35
37852;BME280;23691;52.486;4.650;2024-01-30T11:21:16;102529.88;;;11.32;78.35
37852;BME280;23691;52.486;4.650;2024-01-30T11:23:43;102526.22;;;11.33;78.26
37852;BME280;23691;52.486;4.650;2024-01-30T11:26:12;102535.25;;;11.32;78.13
37852;BME280;23691;52.486;4.650;2024-01-30T11:28:37;102530.19;;;11.39;78.04
37852;BME280;23691;52.486;4.650;2024-01-30T11:31:06;102529.69;;;11.45;77.98
37852;BME280;23691;52.486;4.650;2024-01-30T11:33:32;102531.19;;;11.38;77.84
37852;BME280;23691;52.486;4.650;2024-01-30T11:35:59;102536.56;;;11.38;78.03
37852;BME280;23691;52.486;4.650;2024-01-30T11:38:26;102523.53;;;11.33;78.00
37852;BME280;23691;52.486;4.650;2024-01-30T11:40:53;102525.38;;;11.33;77.56
37852;BME280;23691;52.486;4.650;2024-01-30T11:43:19;102535.38;;;11.31;77.55
37852;BME280;23691;52.486;4.650;2024-01-30T11:45:45;102530.72;;;11.33;77.50
37852;BME280;23691;52.486;4.650;2024-01-30T11:48:12;102543.09;;;11.45;76.99
37852;BME280;23691;52.486;4.650;2024-01-30T11:50:38;102541.16;;;11.47;76.99
37852;BME280;23691;52.486;4.650;2024-01-30T11:53:04;102532.31;;;11.56;76.96
37852;BME280;23691;52.486;4.650;2024-01-30T11:55:30;102543.91;;;11.57;76.64
37852;BME280;23691;52.486;4.650;2024-01-30T11:57:57;102543.28;;;11.53;76.57
37852;BME280;23691;52.486;4.650;2024-01-30T12:00:22;102536.38;;;11.51;76.50
37852;BME280;23691;52.486;4.650;2024-01-30T12:02:52;102541.72;;;11.51;76.19
37852;BME280;23691;52.486;4.650;2024-01-30T12:05:21;102541.84;;;11.49;76.21
37852;BME280;23691;52.486;4.650;2024-01-30T12:07:46;102548.91;;;11.50;76.29
37852;BME280;23691;52.486;4.650;2024-01-30T12:10:15;102548.31;;;11.47;76.16
37852;BME280;23691;52.486;4.650;2024-01-30T12:12:42;102539.34;;;11.36;76.14
37852;BME280;23691;52.486;4.650;2024-01-30T12:15:08;102547.78;;;11.32;76.41
37852;BME280;23691;52.486;4.650;2024-01-30T12:17:34;102544.06;;;11.44;76.05
37852;BME280;23691;52.486;4.650;2024-01-30T12:22:41;102537.22;;;11.51;75.94
37852;BME280;23691;52.486;4.650;2024-01-30T12:25:10;102545.72;;;11.56;75.70
37852;BME280;23691;52.486;4.650;2024-01-30T12:27:37;102552.06;;;11.55;75.83
37852;BME280;23691;52.486;4.650;2024-01-30T12:30:10;102552.44;;;11.51;75.68
37852;BME280;23691;52.486;4.650;2024-01-30T12:32:39;102550.41;;;11.43;75.81
37852;BME280;23691;52.486;4.650;2024-01-30T12:35:12;102554.47;;;11.37;75.76
37852;BME280;23691;52.486;4.650;2024-01-30T12:37:38;102553.84;;;11.34;75.86
37852;BME280;23691;52.486;4.650;2024-01-30T12:40:04;102558.38;;;11.33;75.39
37852;BME280;23691;52.486;4.650;2024-01-30T12:42:29;102551.44;;;11.31;75.46
37852;BME280;23691;52.486;4.650;2024-01-30T12:44:57;102556.69;;;11.32;75.69
37852;BME280;23691;52.486;4.650;2024-01-30T12:47:23;102555.81;;;11.32;75.96
37852;BME280;23691;52.486;4.650;2024-01-30T12:49:48;102554.22;;;11.29;75.78
37852;BME280;23691;52.486;4.650;2024-01-30T12:52:16;102545.63;;;11.26;75.99
37852;BME280;23691;52.486;4.650;2024-01-30T12:54:41;102543.31;;;11.21;76.42